sensor_id;sensor_type;location;lat;lon;timestamp;pressure;altitude;pressure_sealevel;temperature;humidity
57442;BME280;43284;47.042;15.498;2022-10-22T00:00:15;97160.16;;;9.92;95.83
57442;BME280;43284;47.042;15.498;2022-10-22T00:02:43;97166.50;;;9.86;96.26
57442;BME280;43284;47.042;15.498;2022-10-22T00:05:10;97162.97;;;9.87;96.33
57442;BME280;43284;47.042;15.498;2022-10-22T00:07:38;97158.59;;;9.88;96.33
57442;BME280;43284;47.042;15.498;2022-10-22T00:10:06;97162.28;;;9.84;96.48
57442;BME280;43284;47.042;15.498;2022-10-22T00:12:34;97164.03;;;9.83;96.69
57442;BME280;43284;47.042;15.498;2022-10-22T00:15:03;97145.84;;;9.82;96.64
57442;BME280;43284;47.042;15.498;2022-10-22T00:17:31;97161.56;;;9.80;96.61
57442;BME280;43284;47.042;15.498;2022-10-22T00:19:59;97160.41;;;9.86;96.79
57442;BME280;43284;47.042;15.498;2022-10-22T00:22:27;97171.78;;;9.85;96.80
57442;BME280;43284;47.042;15.498;2022-10-22T00:24:54;97173.69;;;9.81;96.86
57442;BME280;43284;47.042;15.498;2022-10-22T00:27:21;97174.56;;;9.82;96.95
57442;BME280;43284;47.042;15.498;2022-10-22T00:29:49;97173.63;;;9.83;97.19
57442;BME280;43284;47.042;15.498;2022-10-22T00:32:18;97164.97;;;9.82;97.10
57442;BME280;43284;47.042;15.498;2022-10-22T00:34:46;97164.13;;;9.82;96.99
57442;BME280;43284;47.042;15.498;2022-10-22T00:37:14;97165.03;;;9.81;97.09
57442;BME280;43284;47.042;15.498;2022-10-22T00:39:42;97171.22;;;9.78;96.92
57442;BME280;43284;47.042;15.498;2022-10-22T00:42:19;97173.69;;;9.81;96.21
57442;BME280;43284;47.042;15.498;2022-10-22T00:47:40;97173.06;;;9.76;96.81
57442;BME280;43284;47.042;15.498;2022-10-22T00:50:13;97154.06;;;9.73;97.07
57442;BME280;43284;47.042;15.498;2022-10-22T00:52:43;97156.88;;;9.68;97.19
57442;BME280;43284;47.042;15.498;2022-10-22T00:55:18;97153.44;;;9.67;97.50
57442;BME280;43284;47.042;15.498;2022-10-22T00:57:47;97148.38;;;9.64;97.47
57442;BME280;43284;47.042;15.498;2022-10-22T01:00:16;97152.88;;;9.61;97.42
57442;BME280;43284;47.042;15.498;2022-10-22T01:02:44;97143.31;;;9.60;97.49
57442;BME280;43284;47.042;15.498;2022-10-22T01:05:12;97149.47;;;9.59;97.56
57442;BME280;43284;47.042;15.498;2022-10-22T01:07:44;97147.84;;;9.56;97.57
57442;BME280;43284;47.042;15.498;2022-10-22T01:15:58;97143.84;;;9.49;97.86
57442;BME280;43284;47.042;15.498;2022-10-22T01:21:41;97130.97;;;9.44;97.78
57442;BME280;43284;47.042;15.498;2022-10-22T01:30:09;97117.72;;;9.30;97.78
57442;BME280;43284;47.042;15.498;2022-10-22T01:32:55;97113.59;;;9.24;97.52
57442;BME280;43284;47.042;15.498;2022-10-22T01:35:30;97102.47;;;9.21;97.76
57442;BME280;43284;47.042;15.498;2022-10-22T01:38:03;97106.91;;;9.19;97.82
57442;BME280;43284;47.042;15.498;2022-10-22T01:40:33;97113.88;;;9.18;98.24
57442;BME280;43284;47.042;15.498;2022-10-22T01:43:07;97108.69;;;9.18;98.33
57442;BME280;43284;47.042;15.498;2022-10-22T01:45:39;97100.97;;;9.15;98.50
57442;BME280;43284;47.042;15.498;2022-10-22T01:53:28;97091.72;;;9.08;98.13
57442;BME280;43284;47.042;15.498;2022-10-22T01:56:39;97084.88;;;9.05;97.71
57442;BME280;43284;47.042;15.498;2022-10-22T01:59:31;97079.00;;;9.00;97.94
57442;BME280;43284;47.042;15.498;2022-10-22T02:02:33;97073.94;;;8.97;98.14
57442;BME280;43284;47.042;15.498;2022-10-22T02:07:54;97057.66;;;8.92;98.64
57442;BME280;43284;47.042;15.498;2022-10-22T02:10:25;97049.19;;;8.87;98.05
57442;BME280;43284;47.042;15.498;2022-10-22T02:12:55;97045.94;;;8.82;97.49
57442;BME280;43284;47.042;15.498;2022-10-22T02:15:26;97044.38;;;8.78;97.89
57442;BME280;43284;47.042;15.498;2022-10-22T02:17:56;97068.81;;;8.75;97.67
57442;BME280;43284;47.042;15.498;2022-10-22T02:20:28;97067.09;;;8.74;97.88
57442;BME280;43284;47.042;15.498;2022-10-22T02:22:59;97050.03;;;8.67;97.53
57442;BME280;43284;47.042;15.498;2022-10-22T02:25:37;97060.66;;;8.62;97.83
57442;BME280;43284;47.042;15.498;2022-10-22T02:28:16;97064.16;;;8.61;97.84
57442;BME280;43284;47.042;15.498;2022-10-22T02:30:52;97060.72;;;8.61;97.98
57442;BME280;43284;47.042;15.498;2022-10-22T02:35:54;97060.13;;;8.54;98.38
57442;BME280;43284;47.042;15.498;2022-10-22T02:38:23;97057.63;;;8.53;98.26
57442;BME280;43284;47.042;15.498;2022-10-22T02:40:51;97046.31;;;8.52;98.63
57442;BME280;43284;47.042;15.498;2022-10-22T02:43:19;97052.41;;;8.53;98.83
57442;BME280;43284;47.042;15.498;2022-10-22T02:45:47;97046.22;;;8.55;99.09
57442;BME280;43284;47.042;15.498;2022-10-22T02:48:14;97035.13;;;8.50;98.69
57442;BME280;43284;47.042;15.498;2022-10-22T02:50:42;97032.47;;;8.52;99.19
57442;BME280;43284;47.042;15.498;2022-10-22T02:53:09;97035.84;;;8.54;99.80
57442;BME280;43284;47.042;15.498;2022-10-22T02:55:37;97039.97;;;8.59;99.04
57442;BME280;43284;47.042;15.498;2022-10-22T02:58:04;97039.53;;;8.48;97.40
57442;BME280;43284;47.042;15.498;2022-10-22T03:00:33;97052.84;;;8.42;97.86
57442;BME280;43284;47.042;15.498;2022-10-22T03:03:01;97050.25;;;8.42;97.76
57442;BME280;43284;47.042;15.498;2022-10-22T03:05:28;97042.56;;;8.37;97.91
57442;BME280;43284;47.042;15.498;2022-10-22T03:07:56;97029.69;;;8.34;98.50
57442;BME280;43284;47.042;15.498;2022-10-22T03:10:24;97022.72;;;8.35;98.69
57442;BME280;43284;47.042;15.498;2022-10-22T03:12:52;97008.00;;;8.34;98.85
57442;BME280;43284;47.042;15.498;2022-10-22T03:15:20;97020.88;;;8.37;99.40
57442;BME280;43284;47.042;15.498;2022-10-22T03:17:47;97017.38;;;8.38;98.95
57442;BME280;43284;47.042;15.498;2022-10-22T03:20:15;97014.00;;;8.36;99.25
57442;BME280;43284;47.042;15.498;2022-10-22T03:22:44;97005.41;;;8.34;99.52
57442;BME280;43284;47.042;15.498;2022-10-22T03:25:18;97012.28;;;8.35;99.52
57442;BME280;43284;47.042;15.498;2022-10-22T03:27:48;97007.94;;;8.35;99.81
57442;BME280;43284;47.042;15.498;2022-10-22T03:30:17;97028.69;;;8.37;99.99
57442;BME280;43284;47.042;15.498;2022-10-22T03:32:45;97020.88;;;8.37;99.89
57442;BME280;43284;47.042;15.498;2022-10-22T03:35:13;97020.00;;;8.38;100.00
57442;BME280;43284;47.042;15.498;2022-10-22T03:37:40;97014.00;;;8.36;99.50
57442;BME280;43284;47.042;15.498;2022-10-22T03:40:08;97022.84;;;8.32;99.29
57442;BME280;43284;47.042;15.498;2022-10-22T03:42:37;97016.81;;;8.31;99.46
57442;BME280;43284;47.042;15.498;2022-10-22T03:45:05;97003.09;;;8.26;99.07
57442;BME280;43284;47.042;15.498;2022-10-22T03:47:33;97012.75;;;8.24;99.14
57442;BME280;43284;47.042;15.498;2022-10-22T03:50:00;97007.53;;;8.24;98.83
57442;BME280;43284;47.042;15.498;2022-10-22T03:52:28;97015.53;;;8.19;98.80
57442;BME280;43284;47.042;15.498;2022-10-22T03:55:01;97022.56;;;8.17;99.25
57442;BME280;43284;47.042;15.498;2022-10-22T03:57:29;97028.69;;;8.16;99.47
57442;BME280;43284;47.042;15.498;2022-10-22T03:59:57;97024.28;;;8.18;100.00
57442;BME280;43284;47.042;15.498;2022-10-22T04:02:25;97030.38;;;8.17;99.87
57442;BME280;43284;47.042;15.498;2022-10-22T04:04:53;97037.34;;;8.17;100.00
57442;BME280;43284;47.042;15.498;2022-10-22T04:07:21;97032.47;;;8.09;99.74
57442;BME280;43284;47.042;15.498;2022-10-22T04:09:48;97035.91;;;8.10;99.91
57442;BME280;43284;47.042;15.498;2022-10-22T04:12:17;97028.16;;;8.08;99.88
57442;BME280;43284;47.042;15.498;2022-10-22T04:14:46;97034.19;;;8.09;99.85
57442;BME280;43284;47.042;15.498;2022-10-22T04:17:14;97029.91;;;8.08;99.78
57442;BME280;43284;47.042;15.498;2022-10-22T04:19:41;97035.13;;;8.08;99.55
57442;BME280;43284;47.042;15.498;2022-10-22T04:22:09;97040.44;;;8.04;99.60
57442;BME280;43284;47.042;15.498;2022-10-22T04:24:37;97033.50;;;8.05;99.52
57442;BME280;43284;47.042;15.498;2022-10-22T04:27:05;97029.97;;;8.06;99.76
57442;BME280;43284;47.042;15.498;2022-10-22T04:29:33;97038.56;;;8.08;100.00
57442;BME280;43284;47.042;15.498;2022-10-22T04:32:01;97026.47;;;8.07;99.87
57442;BME280;43284;47.042;15.498;2022-10-22T04:34:30;97029.25;;;8.02;99.05
57442;BME280;43284;47.042;15.498;2022-10-22T04:36:59;97026.03;;;7.96;98.88
57442;BME280;43284;47.042;15.498;2022-10-22T04:39:27;97030.78;;;7.86;98.84
57442;BME280;43284;47.042;15.498;2022-10-22T04:41:55;97032.41;;;7.89;99.04
57442;BME280;43284;47.042;15.498;2022-10-22T04:44:22;97045.97;;;7.75;98.39
57442;BME280;43284;47.042;15.498;2022-10-22T04:46:50;97038.13;;;7.76;98.80
57442;BME280;43284;47.042;15.498;2022-10-22T04:49:17;97045.97;;;7.75;99.44
57442;BME280;43284;47.042;15.498;2022-10-22T04:51:46;97051.78;;;7.81;100.00
57442;BME280;43284;47.042;15.498;2022-10-22T04:54:15;97043.97;;;7.81;100.00
57442;BME280;43284;47.042;15.498;2022-10-22T04:56:42;97036.22;;;7.80;100.00
57442;BME280;43284;47.042;15.498;2022-10-22T04:59:12;97042.44;;;7.76;100.00
57442;BME280;43284;47.042;15.498;2022-10-22T05:01:44;97041.56;;;7.77;100.00
57442;BME280;43284;47.042;15.498;2022-10-22T05:04:14;97030.34;;;7.75;100.00
57442;BME280;43284;47.042;15.498;2022-10-22T05:06:42;97036.41;;;7.75;100.00
57442;BME280;43284;47.042;15.498;2022-10-22T05:09:18;97016.56;;;7.73;100.00
57442;BME280;43284;47.042;15.498;2022-10-22T05:11:48;97007.91;;;7.72;100.00
57442;BME280;43284;47.042;15.498;2022-10-22T05:14:24;97015.91;;;7.68;99.80
57442;BME280;43284;47.042;15.498;2022-10-22T05:16:51;97016.84;;;7.65;99.49
57442;BME280;43284;47.042;15.498;2022-10-22T05:19:25;97018.75;;;7.61;99.96
57442;BME280;43284;47.042;15.498;2022-10-22T05:21:55;97010.84;;;7.63;100.00
57442;BME280;43284;47.042;15.498;2022-10-22T05:24:24;97005.56;;;7.66;100.00
57442;BME280;43284;47.042;15.498;2022-10-22T05:26:53;97002.03;;;7.67;100.00
57442;BME280;43284;47.042;15.498;2022-10-22T05:29:21;97004.63;;;7.67;100.00
57442;BME280;43284;47.042;15.498;2022-10-22T05:31:49;97007.22;;;7.67;100.00
57442;BME280;43284;47.042;15.498;2022-10-22T05:34:17;97014.25;;;7.65;100.00
57442;BME280;43284;47.042;15.498;2022-10-22T05:36:45;97016.84;;;7.65;100.00
57442;BME280;43284;47.042;15.498;2022-10-22T05:39:13;97022.91;;;7.66;100.00
57442;BME280;43284;47.042;15.498;2022-10-22T05:41:40;97013.34;;;7.66;100.00
57442;BME280;43284;47.042;15.498;2022-10-22T05:44:11;97022.06;;;7.65;100.00
57442;BME280;43284;47.042;15.498;2022-10-22T05:46:39;97032.41;;;7.67;100.00
57442;BME280;43284;47.042;15.498;2022-10-22T05:49:15;97038.41;;;7.69;100.00
57442;BME280;43284;47.042;15.498;2022-10-22T05:51:43;97032.41;;;7.67;100.00
57442;BME280;43284;47.042;15.498;2022-10-22T05:54:16;97026.38;;;7.66;100.00
57442;BME280;43284;47.042;15.498;2022-10-22T05:56:44;97028.00;;;7.69;100.00
57442;BME280;43284;47.042;15.498;2022-10-22T05:59:13;97032.22;;;7.71;100.00
57442;BME280;43284;47.042;15.498;2022-10-22T06:01:41;97032.03;;;7.76;100.00
57442;BME280;43284;47.042;15.498;2022-10-22T06:04:11;97038.25;;;7.72;100.00
57442;BME280;43284;47.042;15.498;2022-10-22T06:06:44;97045.19;;;7.73;100.00
57442;BME280;43284;47.042;15.498;2022-10-22T06:09:24;97052.00;;;7.75;100.00
57442;BME280;43284;47.042;15.498;2022-10-22T06:11:52;97045.84;;;7.78;100.00
57442;BME280;43284;47.042;15.498;2022-10-22T06:14:20;97040.44;;;7.82;100.00
57442;BME280;43284;47.042;15.498;2022-10-22T06:16:48;97053.31;;;7.87;100.00
57442;BME280;43284;47.042;15.498;2022-10-22T06:19:19;97055.72;;;7.92;100.00
57442;BME280;43284;47.042;15.498;2022-10-22T06:21:48;97071.03;;;7.99;100.00
57442;BME280;43284;47.042;15.498;2022-10-22T06:24:18;97065.44;;;8.09;100.00
57442;BME280;43284;47.042;15.498;2022-10-22T06:26:49;97048.78;;;8.13;100.00
57442;BME280;43284;47.042;15.498;2022-10-22T06:29:17;97063.13;;;8.23;100.00
57442;BME280;43284;47.042;15.498;2022-10-22T06:31:44;97050.75;;;8.28;100.00
57442;BME280;43284;47.042;15.498;2022-10-22T06:34:13;97048.75;;;8.35;100.00
57442;BME280;43284;47.042;15.498;2022-10-22T06:36:43;97060.66;;;8.42;100.00
57442;BME280;43284;47.042;15.498;2022-10-22T06:39:12;97062.03;;;8.51;100.00
57442;BME280;43284;47.042;15.498;2022-10-22T06:41:40;97060.09;;;8.56;100.00
57442;BME280;43284;47.042;15.498;2022-10-22T06:44:14;97070.25;;;8.62;100.00
57442;BME280;43284;47.042;15.498;2022-10-22T06:46:41;97075.22;;;8.68;100.00
57442;BME280;43284;47.042;15.498;2022-10-22T06:49:13;97088.88;;;8.73;100.00
57442;BME280;43284;47.042;15.498;2022-10-22T06:51:40;97093.84;;;8.79;100.00
57442;BME280;43284;47.042;15.498;2022-10-22T06:54:08;97083.22;;;8.84;100.00
57442;BME280;43284;47.042;15.498;2022-10-22T06:56:35;97090.88;;;8.87;100.00
57442;BME280;43284;47.042;15.498;2022-10-22T06:59:03;97086.25;;;8.94;100.00
57442;BME280;43284;47.042;15.498;2022-10-22T07:01:33;97084.03;;;9.05;100.00
57442;BME280;43284;47.042;15.498;2022-10-22T07:04:01;97098.25;;;9.18;100.00
57442;BME280;43284;47.042;15.498;2022-10-22T07:06:30;97092.72;;;9.24;100.00
57442;BME280;43284;47.042;15.498;2022-10-22T07:08:58;97089.06;;;9.28;100.00
57442;BME280;43284;47.042;15.498;2022-10-22T07:11:27;97085.16;;;9.39;100.00
57442;BME280;43284;47.042;15.498;2022-10-22T07:13:57;97084.94;;;9.43;100.00
57442;BME280;43284;47.042;15.498;2022-10-22T07:16:25;97088.06;;;9.52;100.00
57442;BME280;43284;47.042;15.498;2022-10-22T07:18:52;97091.22;;;9.58;100.00
57442;BME280;43284;47.042;15.498;2022-10-22T07:21:20;97088.19;;;9.67;100.00
57442;BME280;43284;47.042;15.498;2022-10-22T07:23:48;97093.13;;;9.74;100.00
57442;BME280;43284;47.042;15.498;2022-10-22T07:26:16;97098.75;;;9.83;100.00
57442;BME280;43284;47.042;15.498;2022-10-22T07:28:46;97099.53;;;9.85;100.00
57442;BME280;43284;47.042;15.498;2022-10-22T07:31:15;97101.88;;;9.92;100.00
57442;BME280;43284;47.042;15.498;2022-10-22T07:33:43;97099.09;;;9.95;100.00
57442;BME280;43284;47.042;15.498;2022-10-22T07:36:13;97102.41;;;9.98;100.00
57442;BME280;43284;47.042;15.498;2022-10-22T07:38:52;97100.53;;;10.02;100.00
57442;BME280;43284;47.042;15.498;2022-10-22T07:41:20;97100.25;;;10.08;100.00
57442;BME280;43284;47.042;15.498;2022-10-22T07:43:49;97109.47;;;10.15;100.00
57442;BME280;43284;47.042;15.498;2022-10-22T07:46:17;97121.31;;;10.22;100.00
57442;BME280;43284;47.042;15.498;2022-10-22T07:48:45;97126.31;;;10.27;100.00
57442;BME280;43284;47.042;15.498;2022-10-22T07:51:15;97119.16;;;10.32;100.00
57442;BME280;43284;47.042;15.498;2022-10-22T07:53:42;97122.44;;;10.36;100.00
57442;BME280;43284;47.042;15.498;2022-10-22T07:56:10;97132.59;;;10.42;100.00
57442;BME280;43284;47.042;15.498;2022-10-22T07:58:37;97135.69;;;10.50;100.00
57442;BME280;43284;47.042;15.498;2022-10-22T08:01:05;97153.59;;;10.58;100.00
57442;BME280;43284;47.042;15.498;2022-10-22T08:03:33;97155.00;;;10.65;100.00
57442;BME280;43284;47.042;15.498;2022-10-22T08:06:00;97170.47;;;10.69;100.00
57442;BME280;43284;47.042;15.498;2022-10-22T08:08:28;97184.69;;;10.81;100.00
57442;BME280;43284;47.042;15.498;2022-10-22T08:11:00;97189.88;;;10.83;100.00
57442;BME280;43284;47.042;15.498;2022-10-22T08:13:30;97200.88;;;10.89;100.00
57442;BME280;43284;47.042;15.498;2022-10-22T08:16:01;97202.56;;;10.90;100.00
57442;BME280;43284;47.042;15.498;2022-10-22T08:18:29;97217.25;;;10.93;100.00
57442;BME280;43284;47.042;15.498;2022-10-22T08:20:56;97218.72;;;10.99;100.00
57442;BME280;43284;47.042;15.498;2022-10-22T08:23:25;97221.94;;;11.04;100.00
57442;BME280;43284;47.042;15.498;2022-10-22T08:25:53;97215.56;;;11.09;100.00
57442;BME280;43284;47.042;15.498;2022-10-22T08:28:21;97214.63;;;11.10;100.00
57442;BME280;43284;47.042;15.498;2022-10-22T08:30:48;97220.63;;;11.12;100.00
57442;BME280;43284;47.042;15.498;2022-10-22T08:33:16;97212.72;;;11.14;100.00
57442;BME280;43284;47.042;15.498;2022-10-22T08:35:48;97210.81;;;11.18;100.00
57442;BME280;43284;47.042;15.498;2022-10-22T08:38:16;97217.50;;;11.23;100.00
57442;BME280;43284;47.042;15.498;2022-10-22T08:40:48;97222.50;;;11.28;100.00
57442;BME280;43284;47.042;15.498;2022-10-22T08:43:41;97211.88;;;11.31;100.00
57442;BME280;43284;47.042;15.498;2022-10-22T08:46:31;97217.03;;;11.32;100.00
57442;BME280;43284;47.042;15.498;2022-10-22T08:49:03;97212.41;;;11.38;100.00
57442;BME280;43284;47.042;15.498;2022-10-22T08:51:35;97210.47;;;11.41;100.00
57442;BME280;43284;47.042;15.498;2022-10-22T08:57:02;97208.19;;;11.52;100.00
57442;BME280;43284;47.042;15.498;2022-10-22T08:59:45;97221.56;;;11.64;100.00
57442;BME280;43284;47.042;15.498;2022-10-22T09:07:44;97217.13;;;11.82;100.00
57442;BME280;43284;47.042;15.498;2022-10-22T09:10:17;97210.88;;;11.84;100.00
57442;BME280;43284;47.042;15.498;2022-10-22T09:12:46;97219.44;;;11.88;100.00
57442;BME280;43284;47.042;15.498;2022-10-22T09:15:15;97214.03;;;11.91;100.00
57442;BME280;43284;47.042;15.498;2022-10-22T09:20:54;97218.72;;;12.02;100.00
57442;BME280;43284;47.042;15.498;2022-10-22T09:23:52;97230.72;;;12.06;100.00
57442;BME280;43284;47.042;15.498;2022-10-22T09:26:24;97234.94;;;12.08;100.00
57442;BME280;43284;47.042;15.498;2022-10-22T09:28:51;97239.16;;;12.11;100.00
57442;BME280;43284;47.042;15.498;2022-10-22T09:31:19;97226.75;;;12.14;100.00
57442;BME280;43284;47.042;15.498;2022-10-22T09:33:49;97223.06;;;12.19;100.00
57442;BME280;43284;47.042;15.498;2022-10-22T09:36:20;97225.41;;;12.23;100.00
57442;BME280;43284;47.042;15.498;2022-10-22T09:38:51;97233.03;;;12.28;100.00
57442;BME280;43284;47.042;15.498;2022-10-22T09:41:24;97239.63;;;12.35;100.00
57442;BME280;43284;47.042;15.498;2022-10-22T09:43:53;97241.91;;;12.41;100.00
57442;BME280;43284;47.042;15.498;2022-10-22T09:46:27;97236.34;;;12.47;100.00
57442;BME280;43284;47.042;15.498;2022-10-22T09:49:08;97220.28;;;12.53;100.00
57442;BME280;43284;47.042;15.498;2022-10-22T09:54:18;97219.69;;;12.64;100.00
57442;BME280;43284;47.042;15.498;2022-10-22T09:57:03;97227.22;;;12.70;100.00
57442;BME280;43284;47.042;15.498;2022-10-22T09:59:36;97239.13;;;12.76;100.00
57442;BME280;43284;47.042;15.498;2022-10-22T10:02:12;97250.28;;;12.80;100.00
57442;BME280;43284;47.042;15.498;2022-10-22T10:04:46;97250.19;;;12.81;100.00
57442;BME280;43284;47.042;15.498;2022-10-22T10:07:25;97245.53;;;12.86;100.00
57442;BME280;43284;47.042;15.498;2022-10-22T10:09:53;97237.69;;;12.86;100.00
57442;BME280;43284;47.042;15.498;2022-10-22T10:12:40;97230.56;;;12.88;100.00
57442;BME280;43284;47.042;15.498;2022-10-22T10:15:15;97235.69;;;12.90;100.00
57442;BME280;43284;47.042;15.498;2022-10-22T10:28:57;97238.47;;;13.03;100.00
57442;BME280;43284;47.042;15.498;2022-10-22T10:31:44;97245.25;;;13.07;100.00
57442;BME280;43284;47.042;15.498;2022-10-22T10:39:16;97257.84;;;13.16;100.00
57442;BME280;43284;47.042;15.498;2022-10-22T10:42:02;97260.31;;;13.19;100.00
57442;BME280;43284;47.042;15.498;2022-10-22T10:44:54;97259.19;;;13.23;100.00
57442;BME280;43284;47.042;15.498;2022-10-22T11:01:58;97262.72;;;13.38;100.00
57442;BME280;43284;47.042;15.498;2022-10-22T11:04:54;97264.34;;;13.41;100.00
57442;BME280;43284;47.042;15.498;2022-10-22T11:07:35;97264.06;;;13.45;100.00
57442;BME280;43284;47.042;15.498;2022-10-22T11:10:31;97274.22;;;13.51;100.00
57442;BME280;43284;47.042;15.498;2022-10-22T11:16:02;97282.41;;;13.61;100.00
57442;BME280;43284;47.042;15.498;2022-10-22T11:18:46;97269.00;;;13.66;100.00
57442;BME280;43284;47.042;15.498;2022-10-22T11:21:36;97267.78;;;13.71;100.00
57442;BME280;43284;47.042;15.498;2022-10-22T11:30:02;97262.53;;;13.86;100.00
57442;BME280;43284;47.042;15.498;2022-10-22T11:32:31;97265.94;;;13.88;100.00
57442;BME280;43284;47.042;15.498;2022-10-22T11:35:02;97267.34;;;13.93;100.00
57442;BME280;43284;47.042;15.498;2022-10-22T11:37:35;97267.16;;;13.96;100.00
57442;BME280;43284;47.042;15.498;2022-10-22T11:40:34;97268.75;;;13.99;100.00
57442;BME280;43284;47.042;15.498;2022-10-22T11:43:09;97266.69;;;14.04;100.00
57442;BME280;43284;47.042;15.498;2022-10-22T11:45:40;97266.50;;;14.07;100.00
57442;BME280;43284;47.042;15.498;2022-10-22T11:48:17;97271.22;;;14.02;100.00
57442;BME280;43284;47.042;15.498;2022-10-22T11:51:00;97276.63;;;13.99;100.00
57442;BME280;43284;47.042;15.498;2022-10-22T11:53:37;97276.75;;;13.97;100.00
57442;BME280;43284;47.042;15.498;2022-10-22T12:03:39;97270.63;;;13.97;100.00
57442;BME280;43284;47.042;15.498;2022-10-22T12:11:34;97279.44;;;13.96;100.00
57442;BME280;43284;47.042;15.498;2022-10-22T12:14:20;97280.28;;;13.96;100.00
57442;BME280;43284;47.042;15.498;2022-10-22T12:16:57;97274.19;;;13.96;100.00
57442;BME280;43284;47.042;15.498;2022-10-22T12:19:40;97277.66;;;13.96;100.00
57442;BME280;43284;47.042;15.498;2022-10-22T12:22:16;97277.50;;;13.99;100.00
57442;BME280;43284;47.042;15.498;2022-10-22T12:24:47;97278.41;;;13.98;100.00
57442;BME280;43284;47.042;15.498;2022-10-22T12:27:39;97292.31;;;14.00;100.00
57442;BME280;43284;47.042;15.498;2022-10-22T12:30:27;97294.94;;;14.00;100.00
57442;BME280;43284;47.042;15.498;2022-10-22T12:33:03;97298.53;;;13.99;100.00
57442;BME280;43284;47.042;15.498;2022-10-22T12:35:43;97293.28;;;13.99;100.00
57442;BME280;43284;47.042;15.498;2022-10-22T12:38:24;97295.91;;;13.99;100.00
57442;BME280;43284;47.042;15.498;2022-10-22T12:40:55;97290.81;;;13.96;100.00
57442;BME280;43284;47.042;15.498;2022-10-22T12:43:28;97300.47;;;13.96;100.00
57442;BME280;43284;47.042;15.498;2022-10-22T12:45:56;97305.72;;;13.96;100.00
57442;BME280;43284;47.042;15.498;2022-10-22T12:48:34;97307.53;;;13.95;100.00
57442;BME280;43284;47.042;15.498;2022-10-22T12:51:07;97303.09;;;13.96;100.00
57442;BME280;43284;47.042;15.498;2022-10-22T12:53:54;97309.19;;;13.96;100.00
57442;BME280;43284;47.042;15.498;2022-10-22T12:56:30;97303.09;;;13.96;100.00
57442;BME280;43284;47.042;15.498;2022-10-22T12:59:04;97304.78;;;13.97;100.00
57442;BME280;43284;47.042;15.498;2022-10-22T13:01:38;97301.31;;;13.96;100.00
57442;BME280;43284;47.042;15.498;2022-10-22T13:06:45;97295.13;;;13.97;100.00
57442;BME280;43284;47.042;15.498;2022-10-22T13:09:23;97298.59;;;13.98;100.00
57442;BME280;43284;47.042;15.498;2022-10-22T13:12:04;97296.81;;;13.98;100.00
57442;BME280;43284;47.042;15.498;2022-10-22T13:14:34;97294.09;;;14.00;100.00
57442;BME280;43284;47.042;15.498;2022-10-22T13:17:07;97295.03;;;13.99;100.00
57442;BME280;43284;47.042;15.498;2022-10-22T13:19:35;97295.13;;;13.97;100.00
57442;BME280;43284;47.042;15.498;2022-10-22T13:22:20;97295.22;;;13.96;100.00
57442;BME280;43284;47.042;15.498;2022-10-22T13:24:51;97294.38;;;13.95;100.00
57442;BME280;43284;47.042;15.498;2022-10-22T13:27:20;97297.00;;;13.95;100.00
57442;BME280;43284;47.042;15.498;2022-10-22T13:29:47;97297.84;;;13.96;100.00
57442;BME280;43284;47.042;15.498;2022-10-22T13:32:31;97310.16;;;13.95;100.00
57442;BME280;43284;47.042;15.498;2022-10-22T13:35:00;97304.16;;;13.93;100.00
57442;BME280;43284;47.042;15.498;2022-10-22T13:37:30;97301.50;;;13.93;100.00
57442;BME280;43284;47.042;15.498;2022-10-22T13:39:59;97302.63;;;13.89;100.00
57442;BME280;43284;47.042;15.498;2022-10-22T13:42:26;97297.53;;;13.86;100.00
57442;BME280;43284;47.042;15.498;2022-10-22T13:44:54;97307.22;;;13.86;100.00
57442;BME280;43284;47.042;15.498;2022-10-22T13:47:26;97304.78;;;13.83;100.00
57442;BME280;43284;47.042;15.498;2022-10-22T13:49:59;97308.44;;;13.80;100.00
57442;BME280;43284;47.042;15.498;2022-10-22T13:52:32;97308.59;;;13.77;100.00
57442;BME280;43284;47.042;15.498;2022-10-22T13:55:01;97311.34;;;13.75;100.00
57442;BME280;43284;47.042;15.498;2022-10-22T13:57:29;97314.88;;;13.74;100.00
57442;BME280;43284;47.042;15.498;2022-10-22T13:59:56;97319.31;;;13.74;100.00
57442;BME280;43284;47.042;15.498;2022-10-22T14:02:24;97325.59;;;13.71;100.00
57442;BME280;43284;47.042;15.498;2022-10-22T14:04:53;97337.13;;;13.69;100.00
57442;BME280;43284;47.042;15.498;2022-10-22T14:07:22;97337.13;;;13.69;100.00
57442;BME280;43284;47.042;15.498;2022-10-22T14:09:49;97338.13;;;13.66;100.00
57442;BME280;43284;47.042;15.498;2022-10-22T14:12:16;97343.50;;;13.65;100.00
57442;BME280;43284;47.042;15.498;2022-10-22T14:14:44;97345.38;;;13.63;100.00
57442;BME280;43284;47.042;15.498;2022-10-22T14:17:14;97357.75;;;13.60;100.00
57442;BME280;43284;47.042;15.498;2022-10-22T14:19:47;97362.22;;;13.58;100.00
57442;BME280;43284;47.042;15.498;2022-10-22T14:22:18;97366.72;;;13.56;100.00
57442;BME280;43284;47.042;15.498;2022-10-22T14:24:46;97370.38;;;13.54;100.00
57442;BME280;43284;47.042;15.498;2022-10-22T14:27:14;97373.91;;;13.53;100.00
57442;BME280;43284;47.042;15.498;2022-10-22T14:29:42;97369.69;;;13.50;100.00
57442;BME280;43284;47.042;15.498;2022-10-22T14:32:15;97382.81;;;13.50;100.00
57442;BME280;43284;47.042;15.498;2022-10-22T14:34:42;97383.84;;;13.48;100.00
57442;BME280;43284;47.042;15.498;2022-10-22T14:37:17;97377.00;;;13.45;100.00
57442;BME280;43284;47.042;15.498;2022-10-22T14:39:46;97378.78;;;13.45;100.00
57442;BME280;43284;47.042;15.498;2022-10-22T14:42:18;97368.34;;;13.43;100.00
57442;BME280;43284;47.042;15.498;2022-10-22T14:44:46;97358.88;;;13.41;100.00
57442;BME280;43284;47.042;15.498;2022-10-22T14:47:13;97366.75;;;13.41;100.00